createdAt,value
2022-10-02T17:10:45.783Z,96.63
2022-10-02T17:11:46.760Z,97.03
2022-10-02T17:12:46.740Z,96.57
2022-10-02T17:13:46.719Z,96.37
2022-10-02T17:14:46.758Z,96.27
2022-10-02T17:15:46.698Z,96.72
2022-10-02T17:16:46.826Z,96.92
2022-10-02T17:17:46.690Z,97.94
2022-10-02T17:18:46.677Z,98.24
2022-10-02T17:19:46.675Z,98.79
2022-10-02T17:20:46.653Z,97.38
2022-10-02T17:21:46.639Z,98.18
2022-10-02T17:22:46.644Z,96.10
2022-10-02T17:23:46.618Z,93.67
2022-10-02T17:24:46.610Z,94.38
2022-10-02T17:25:46.626Z,94.73
2022-10-02T17:26:46.590Z,94.22
2022-10-02T17:27:46.667Z,94.62
2022-10-02T17:28:46.568Z,94.46
2022-10-02T17:29:46.569Z,95.07
2022-10-02T17:30:46.571Z,95.07
2022-10-02T17:31:46.565Z,96.30
2022-10-02T17:32:46.545Z,96.70
2022-10-02T17:33:46.518Z,96.54
2022-10-02T17:34:46.505Z,97.15
2022-10-02T17:35:46.525Z,97.66
2022-10-02T17:36:46.493Z,98.07
2022-10-02T17:37:46.476Z,98.57
2022-10-02T17:38:46.480Z,98.77
2022-10-02T17:39:46.472Z,98.82
2022-10-02T17:40:46.463Z,98.41
2022-10-02T17:41:46.451Z,98.52
2022-10-02T17:42:46.419Z,98.82
2022-10-02T17:43:46.424Z,99.13
2022-10-02T17:44:46.410Z,99.43
2022-10-02T17:45:46.528Z,99.78
2022-10-02T17:46:46.379Z,99.99
2022-10-02T17:47:46.373Z,99.99
2022-10-02T17:48:46.384Z,99.99
2022-10-02T17:49:46.357Z,99.99
2022-10-02T17:50:46.371Z,99.99
2022-10-02T17:51:53.730Z,99.99
2022-10-02T17:52:46.325Z,99.99
2022-10-02T17:53:46.320Z,99.99
2022-10-02T17:54:46.296Z,99.99
2022-10-02T17:55:46.307Z,99.99
2022-10-02T17:56:46.273Z,99.99
2022-10-02T17:57:46.267Z,99.99
2022-10-02T17:58:46.262Z,99.99
2022-10-02T17:59:46.266Z,99.99
2022-10-02T18:00:46.727Z,99.99
2022-10-02T18:01:47.068Z,99.99
2022-10-02T18:02:46.222Z,99.99
2022-10-02T18:03:46.838Z,99.99
2022-10-02T18:04:46.191Z,99.99
2022-10-02T18:05:47.057Z,99.99
2022-10-02T18:06:47.800Z,99.99
2022-10-02T18:07:46.852Z,99.99
2022-10-02T18:08:46.306Z,99.99
2022-10-02T18:09:46.143Z,99.99
2022-10-02T18:10:46.149Z,99.99
2022-10-02T18:11:46.124Z,99.99
2022-10-02T18:12:46.119Z,99.99
2022-10-02T18:13:46.102Z,99.99
2022-10-02T18:14:46.088Z,99.99
2022-10-02T18:15:46.113Z,99.99
2022-10-02T18:16:46.170Z,99.99
2022-10-02T18:17:46.061Z,99.99
2022-10-02T18:18:46.045Z,99.99
2022-10-02T18:19:46.039Z,99.99
2022-10-02T18:20:46.133Z,99.99
2022-10-02T18:21:46.051Z,99.99
2022-10-02T18:22:46.002Z,99.99
2022-10-02T18:23:45.995Z,99.99
2022-10-02T18:24:46.013Z,99.99
2022-10-02T18:25:46.008Z,99.99
2022-10-02T18:26:45.981Z,99.99
2022-10-02T18:27:45.966Z,99.99
